sensor_id;sensor_type;location;lat;lon;timestamp;pressure;altitude;pressure_sealevel;temperature;humidity
69751;BME280;57335;52.288;6.056;2022-11-11T00:01:44;102745.81;;;9.58;100.00
69751;BME280;57335;52.288;6.056;2022-11-11T00:04:10;102745.00;;;9.57;100.00
69751;BME280;57335;52.288;6.056;2022-11-11T00:06:36;102759.56;;;9.60;100.00
69751;BME280;57335;52.288;6.056;2022-11-11T00:09:03;102763.47;;;9.56;100.00
69751;BME280;57335;52.288;6.056;2022-11-11T00:11:29;102756.22;;;9.50;100.00
69751;BME280;57335;52.288;6.056;2022-11-11T00:13:55;102753.59;;;9.50;100.00
69751;BME280;57335;52.288;6.056;2022-11-11T00:16:22;102761.75;;;9.47;100.00
69751;BME280;57335;52.288;6.056;2022-11-11T00:18:48;102770.81;;;9.52;100.00
69751;BME280;57335;52.288;6.056;2022-11-11T00:21:15;102776.03;;;9.52;100.00
69751;BME280;57335;52.288;6.056;2022-11-11T00:23:41;102765.19;;;9.47;100.00
69751;BME280;57335;52.288;6.056;2022-11-11T00:26:10;102760.09;;;9.46;100.00
69751;BME280;57335;52.288;6.056;2022-11-11T00:28:57;102759.44;;;9.44;100.00
69751;BME280;57335;52.288;6.056;2022-11-11T00:31:24;102769.63;;;9.47;100.00
69751;BME280;57335;52.288;6.056;2022-11-11T00:33:52;102774.25;;;9.53;100.00
69751;BME280;57335;52.288;6.056;2022-11-11T00:36:18;102765.72;;;9.51;100.00
69751;BME280;57335;52.288;6.056;2022-11-11T00:38:45;102777.53;;;9.55;100.00
69751;BME280;57335;52.288;6.056;2022-11-11T00:41:16;102764.38;;;9.47;100.00
69751;BME280;57335;52.288;6.056;2022-11-11T00:43:44;102761.81;;;9.55;100.00
69751;BME280;57335;52.288;6.056;2022-11-11T00:46:13;102764.50;;;9.63;100.00
69751;BME280;57335;52.288;6.056;2022-11-11T00:48:40;102738.28;;;9.55;100.00
69751;BME280;57335;52.288;6.056;2022-11-11T00:51:06;102753.66;;;9.58;100.00
69751;BME280;57335;52.288;6.056;2022-11-11T00:53:33;102769.13;;;9.69;100.00
69751;BME280;57335;52.288;6.056;2022-11-11T00:55:59;102767.72;;;9.75;100.00
69751;BME280;57335;52.288;6.056;2022-11-11T00:58:26;102761.66;;;9.74;100.00
69751;BME280;57335;52.288;6.056;2022-11-11T01:00:53;102764.94;;;9.76;100.00
69751;BME280;57335;52.288;6.056;2022-11-11T01:03:20;102761.19;;;9.79;100.00
69751;BME280;57335;52.288;6.056;2022-11-11T01:05:47;102753.34;;;9.79;100.00
69751;BME280;57335;52.288;6.056;2022-11-11T01:08:14;102762.06;;;9.88;100.00
69751;BME280;57335;52.288;6.056;2022-11-11T01:10:40;102753.53;;;9.86;100.00
69751;BME280;57335;52.288;6.056;2022-11-11T01:13:19;102762.56;;;9.91;100.00
69751;BME280;57335;52.288;6.056;2022-11-11T01:15:48;102751.75;;;9.86;100.00
69751;BME280;57335;52.288;6.056;2022-11-11T01:18:18;102772.28;;;9.99;100.00
69751;BME280;57335;52.288;6.056;2022-11-11T01:20:45;102765.72;;;9.95;100.00
69751;BME280;57335;52.288;6.056;2022-11-11T01:23:13;102759.47;;;9.96;100.00
69751;BME280;57335;52.288;6.056;2022-11-11T01:25:41;102761.13;;;9.97;100.00
69751;BME280;57335;52.288;6.056;2022-11-11T01:28:08;102766.91;;;10.01;100.00
69751;BME280;57335;52.288;6.056;2022-11-11T01:30:35;102773.00;;;10.09;100.00
69751;BME280;57335;52.288;6.056;2022-11-11T01:33:02;102766.44;;;10.05;100.00
69751;BME280;57335;52.288;6.056;2022-11-11T01:35:29;102769.72;;;10.07;100.00
69751;BME280;57335;52.288;6.056;2022-11-11T01:37:56;102772.03;;;10.10;100.00
69751;BME280;57335;52.288;6.056;2022-11-11T01:40:23;102787.81;;;10.18;100.00
69751;BME280;57335;52.288;6.056;2022-11-11T01:43:14;102782.03;;;10.15;100.00
69751;BME280;57335;52.288;6.056;2022-11-11T01:48:25;102782.22;;;10.22;100.00
69751;BME280;57335;52.288;6.056;2022-11-11T01:50:59;102789.63;;;10.26;100.00
69751;BME280;57335;52.288;6.056;2022-11-11T01:53:26;102785.66;;;10.22;100.00
69751;BME280;57335;52.288;6.056;2022-11-11T01:55:53;102781.28;;;10.23;100.00
69751;BME280;57335;52.288;6.056;2022-11-11T01:58:20;102775.69;;;10.26;100.00
69751;BME280;57335;52.288;6.056;2022-11-11T02:00:46;102775.69;;;10.26;100.00
69751;BME280;57335;52.288;6.056;2022-11-11T02:03:13;102782.97;;;10.32;100.00
69751;BME280;57335;52.288;6.056;2022-11-11T02:05:40;102776.22;;;10.29;100.00
69751;BME280;57335;52.288;6.056;2022-11-11T02:08:16;102776.09;;;10.31;100.00
69751;BME280;57335;52.288;6.056;2022-11-11T02:10:44;102774.28;;;10.31;100.00
69751;BME280;57335;52.288;6.056;2022-11-11T02:13:14;102766.59;;;10.30;100.00
69751;BME280;57335;52.288;6.056;2022-11-11T02:15:41;102765.00;;;10.37;100.00
69751;BME280;57335;52.288;6.056;2022-11-11T02:18:08;102753.47;;;10.30;100.00
69751;BME280;57335;52.288;6.056;2022-11-11T02:20:41;102763.34;;;10.36;100.00
69751;BME280;57335;52.288;6.056;2022-11-11T02:23:31;102759.75;;;10.37;100.00
69751;BME280;57335;52.288;6.056;2022-11-11T02:26:01;102744.78;;;10.29;100.00
69751;BME280;57335;52.288;6.056;2022-11-11T02:28:30;102754.00;;;10.33;100.00
69751;BME280;57335;52.288;6.056;2022-11-11T02:30:58;102753.03;;;10.34;100.00
69751;BME280;57335;52.288;6.056;2022-11-11T02:33:24;102746.56;;;10.29;100.00
69751;BME280;57335;52.288;6.056;2022-11-11T02:35:54;102750.84;;;10.30;100.00
69751;BME280;57335;52.288;6.056;2022-11-11T02:38:25;102730.47;;;10.15;100.00
69751;BME280;57335;52.288;6.056;2022-11-11T02:40:52;102739.00;;;10.26;100.00
69751;BME280;57335;52.288;6.056;2022-11-11T02:43:18;102734.91;;;10.23;100.00
69751;BME280;57335;52.288;6.056;2022-11-11T02:45:45;102737.69;;;10.22;100.00
69751;BME280;57335;52.288;6.056;2022-11-11T02:48:11;102746.22;;;10.24;100.00
69751;BME280;57335;52.288;6.056;2022-11-11T02:50:38;102744.41;;;10.24;100.00
69751;BME280;57335;52.288;6.056;2022-11-11T02:53:04;102738.72;;;10.29;100.00
69751;BME280;57335;52.288;6.056;2022-11-11T02:55:31;102727.34;;;10.20;100.00
69751;BME280;57335;52.288;6.056;2022-11-11T02:57:57;102738.69;;;10.21;100.00
69751;BME280;57335;52.288;6.056;2022-11-11T03:00:24;102743.28;;;10.27;100.00
69751;BME280;57335;52.288;6.056;2022-11-11T03:02:50;102745.56;;;10.22;100.00
69751;BME280;57335;52.288;6.056;2022-11-11T03:05:17;102737.69;;;10.22;100.00
69751;BME280;57335;52.288;6.056;2022-11-11T03:07:43;102743.44;;;10.25;100.00
69751;BME280;57335;52.288;6.056;2022-11-11T03:10:10;102744.41;;;10.24;100.00
69751;BME280;57335;52.288;6.056;2022-11-11T03:12:37;102745.56;;;10.22;100.00
69751;BME280;57335;52.288;6.056;2022-11-11T03:15:04;102749.50;;;10.26;100.00
69751;BME280;57335;52.288;6.056;2022-11-11T03:17:30;102760.31;;;10.23;100.00
69751;BME280;57335;52.288;6.056;2022-11-11T03:19:57;102764.91;;;10.29;100.00
69751;BME280;57335;52.288;6.056;2022-11-11T03:22:23;102767.53;;;10.29;100.00
69751;BME280;57335;52.288;6.056;2022-11-11T03:25:09;102768.50;;;10.28;100.00
69751;BME280;57335;52.288;6.056;2022-11-11T03:27:36;102773.75;;;10.28;100.00
69751;BME280;57335;52.288;6.056;2022-11-11T03:30:02;102764.88;;;10.21;100.00
69751;BME280;57335;52.288;6.056;2022-11-11T03:32:29;102772.56;;;10.22;100.00
69751;BME280;57335;52.288;6.056;2022-11-11T03:34:55;102768.00;;;10.24;100.00
69751;BME280;57335;52.288;6.056;2022-11-11T03:37:21;102766.38;;;10.23;100.00
69751;BME280;57335;52.288;6.056;2022-11-11T03:39:48;102775.19;;;10.22;100.00
69751;BME280;57335;52.288;6.056;2022-11-11T03:42:14;102772.41;;;10.24;100.00
69751;BME280;57335;52.288;6.056;2022-11-11T03:44:40;102756.19;;;10.20;100.00
69751;BME280;57335;52.288;6.056;2022-11-11T03:47:07;102767.19;;;10.24;100.00
69751;BME280;57335;52.288;6.056;2022-11-11T03:49:33;102760.75;;;10.18;100.00
69751;BME280;57335;52.288;6.056;2022-11-11T03:52:00;102758.31;;;10.16;100.00
69751;BME280;57335;52.288;6.056;2022-11-11T03:54:26;102757.47;;;10.16;100.00
69751;BME280;57335;52.288;6.056;2022-11-11T03:56:53;102756.66;;;10.15;100.00
69751;BME280;57335;52.288;6.056;2022-11-11T03:59:19;102758.59;;;10.13;100.00
69751;BME280;57335;52.288;6.056;2022-11-11T04:01:45;102773.38;;;10.14;100.00
69751;BME280;57335;52.288;6.056;2022-11-11T04:04:12;102764.66;;;10.14;100.00
69751;BME280;57335;52.288;6.056;2022-11-11T04:06:38;102781.91;;;10.16;100.00
69751;BME280;57335;52.288;6.056;2022-11-11T04:09:06;102764.00;;;10.12;100.00
69751;BME280;57335;52.288;6.056;2022-11-11T04:11:38;102767.25;;;10.06;100.00
69751;BME280;57335;52.288;6.056;2022-11-11T04:14:08;102773.16;;;10.08;100.00
69751;BME280;57335;52.288;6.056;2022-11-11T04:16:34;102770.69;;;10.06;100.00
69751;BME280;57335;52.288;6.056;2022-11-11T04:19:01;102767.09;;;10.07;100.00
69751;BME280;57335;52.288;6.056;2022-11-11T04:21:27;102775.31;;;10.12;100.00
69751;BME280;57335;52.288;6.056;2022-11-11T04:23:53;102772.63;;;10.04;100.00
69751;BME280;57335;52.288;6.056;2022-11-11T04:26:20;102767.72;;;10.01;100.00
69751;BME280;57335;52.288;6.056;2022-11-11T04:28:46;102769.66;;;9.99;100.00
69751;BME280;57335;52.288;6.056;2022-11-11T04:31:13;102771.47;;;9.98;100.00
69751;BME280;57335;52.288;6.056;2022-11-11T04:33:39;102769.16;;;9.95;100.00
69751;BME280;57335;52.288;6.056;2022-11-11T04:36:06;102762.28;;;9.94;100.00
69751;BME280;57335;52.288;6.056;2022-11-11T04:38:32;102768.47;;;9.93;100.00
69751;BME280;57335;52.288;6.056;2022-11-11T04:40:58;102760.72;;;9.84;100.00
69751;BME280;57335;52.288;6.056;2022-11-11T04:43:25;102758.75;;;9.86;100.00
69751;BME280;57335;52.288;6.056;2022-11-11T04:45:51;102763.19;;;9.85;100.00
69751;BME280;57335;52.288;6.056;2022-11-11T04:48:18;102772.53;;;9.88;100.00
69751;BME280;57335;52.288;6.056;2022-11-11T04:50:44;102748.91;;;9.79;100.00
69751;BME280;57335;52.288;6.056;2022-11-11T04:53:12;102756.28;;;9.84;100.00
69751;BME280;57335;52.288;6.056;2022-11-11T04:55:40;102759.25;;;9.81;100.00
69751;BME280;57335;52.288;6.056;2022-11-11T04:58:07;102744.66;;;9.78;100.00
69751;BME280;57335;52.288;6.056;2022-11-11T05:00:34;102753.53;;;9.86;100.00
69751;BME280;57335;52.288;6.056;2022-11-11T05:03:01;102748.81;;;9.89;100.00
69751;BME280;57335;52.288;6.056;2022-11-11T05:05:28;102750.09;;;9.85;100.00
69751;BME280;57335;52.288;6.056;2022-11-11T05:07:55;102738.28;;;9.81;100.00
69751;BME280;57335;52.288;6.056;2022-11-11T05:10:21;102740.59;;;9.84;100.00
69751;BME280;57335;52.288;6.056;2022-11-11T05:12:47;102740.75;;;9.83;100.00
69751;BME280;57335;52.288;6.056;2022-11-11T05:15:14;102733.56;;;9.85;100.00
69751;BME280;57335;52.288;6.056;2022-11-11T05:17:40;102722.44;;;9.83;100.00
69751;BME280;57335;52.288;6.056;2022-11-11T05:20:08;102730.28;;;9.83;100.00
69751;BME280;57335;52.288;6.056;2022-11-11T05:22:37;102734.34;;;9.77;100.00
69751;BME280;57335;52.288;6.056;2022-11-11T05:25:05;102734.63;;;9.74;100.00
69751;BME280;57335;52.288;6.056;2022-11-11T05:27:32;102748.63;;;9.83;100.00
69751;BME280;57335;52.288;6.056;2022-11-11T05:29:59;102759.91;;;9.83;100.00
69751;BME280;57335;52.288;6.056;2022-11-11T05:32:25;102745.31;;;9.81;100.00
69751;BME280;57335;52.288;6.056;2022-11-11T05:34:52;102754.97;;;9.80;100.00
69751;BME280;57335;52.288;6.056;2022-11-11T05:37:19;102747.94;;;9.81;100.00
69751;BME280;57335;52.288;6.056;2022-11-11T05:39:45;102768.94;;;9.89;100.00
69751;BME280;57335;52.288;6.056;2022-11-11T05:42:12;102772.38;;;9.89;100.00
69751;BME280;57335;52.288;6.056;2022-11-11T05:44:38;102772.84;;;9.85;100.00
69751;BME280;57335;52.288;6.056;2022-11-11T05:47:05;102766.28;;;9.81;100.00
69751;BME280;57335;52.288;6.056;2022-11-11T05:49:31;102782.84;;;9.89;100.00
69751;BME280;57335;52.288;6.056;2022-11-11T05:51:58;102779.94;;;9.92;100.00
69751;BME280;57335;52.288;6.056;2022-11-11T05:54:25;102776.94;;;9.87;100.00
69751;BME280;57335;52.288;6.056;2022-11-11T05:56:51;102779.44;;;9.89;100.00
69751;BME280;57335;52.288;6.056;2022-11-11T05:59:18;102790.09;;;9.95;100.00
69751;BME280;57335;52.288;6.056;2022-11-11T06:01:44;102798.47;;;9.99;100.00
69751;BME280;57335;52.288;6.056;2022-11-11T06:04:11;102797.81;;;9.97;100.00
69751;BME280;57335;52.288;6.056;2022-11-11T06:06:43;102811.25;;;10.02;100.00
69751;BME280;57335;52.288;6.056;2022-11-11T06:09:09;102814.88;;;10.01;100.00
69751;BME280;57335;52.288;6.056;2022-11-11T06:11:36;102819.44;;;9.99;100.00
69751;BME280;57335;52.288;6.056;2022-11-11T06:14:03;102814.81;;;9.93;100.00
69751;BME280;57335;52.288;6.056;2022-11-11T06:16:29;102826.31;;;10.00;100.00
69751;BME280;57335;52.288;6.056;2022-11-11T06:18:55;102832.53;;;9.99;100.00
69751;BME280;57335;52.288;6.056;2022-11-11T06:21:22;102818.44;;;10.00;100.00
69751;BME280;57335;52.288;6.056;2022-11-11T06:23:48;102827.28;;;9.99;100.00
69751;BME280;57335;52.288;6.056;2022-11-11T06:26:14;102824.28;;;9.94;100.00
69751;BME280;57335;52.288;6.056;2022-11-11T06:28:49;102824.63;;;9.91;100.00
69751;BME280;57335;52.288;6.056;2022-11-11T06:31:24;102824.47;;;9.92;100.00
69751;BME280;57335;52.288;6.056;2022-11-11T06:33:50;102829.53;;;9.94;100.00
69751;BME280;57335;52.288;6.056;2022-11-11T06:36:18;102827.38;;;9.89;100.00
69751;BME280;57335;52.288;6.056;2022-11-11T06:38:46;102837.19;;;9.87;100.00
69751;BME280;57335;52.288;6.056;2022-11-11T06:41:13;102820.59;;;9.78;100.00
69751;BME280;57335;52.288;6.056;2022-11-11T06:43:41;102837.03;;;9.89;100.00
69751;BME280;57335;52.288;6.056;2022-11-11T06:46:16;102837.66;;;9.83;100.00
69751;BME280;57335;52.288;6.056;2022-11-11T06:48:43;102840.28;;;9.83;100.00
69751;BME280;57335;52.288;6.056;2022-11-11T06:51:11;102847.13;;;9.84;100.00
69751;BME280;57335;52.288;6.056;2022-11-11T06:53:37;102852.03;;;9.78;100.00
69751;BME280;57335;52.288;6.056;2022-11-11T06:56:04;102856.94;;;9.82;100.00
69751;BME280;57335;52.288;6.056;2022-11-11T06:58:31;102861.22;;;9.83;100.00
69751;BME280;57335;52.288;6.056;2022-11-11T07:00:57;102854.19;;;9.83;100.00
69751;BME280;57335;52.288;6.056;2022-11-11T07:03:24;102850.22;;;9.79;100.00
69751;BME280;57335;52.288;6.056;2022-11-11T07:05:51;102851.19;;;9.78;100.00
69751;BME280;57335;52.288;6.056;2022-11-11T07:08:24;102855.97;;;9.83;100.00
69751;BME280;57335;52.288;6.056;2022-11-11T07:10:51;102854.78;;;9.77;100.00
69751;BME280;57335;52.288;6.056;2022-11-11T07:13:17;102852.50;;;9.82;100.00
69751;BME280;57335;52.288;6.056;2022-11-11T07:15:44;102856.41;;;9.78;100.00
69751;BME280;57335;52.288;6.056;2022-11-11T07:18:10;102853.97;;;9.76;100.00
69751;BME280;57335;52.288;6.056;2022-11-11T07:20:38;102857.94;;;9.81;100.00
69751;BME280;57335;52.288;6.056;2022-11-11T07:23:05;102854.63;;;9.78;100.00
69751;BME280;57335;52.288;6.056;2022-11-11T07:25:31;102868.09;;;9.84;100.00
69751;BME280;57335;52.288;6.056;2022-11-11T07:27:58;102860.38;;;9.82;100.00
69751;BME280;57335;52.288;6.056;2022-11-11T07:30:25;102871.09;;;9.89;100.00
69751;BME280;57335;52.288;6.056;2022-11-11T07:32:52;102872.72;;;9.90;100.00
69751;BME280;57335;52.288;6.056;2022-11-11T07:35:20;102865.19;;;9.87;100.00
69751;BME280;57335;52.288;6.056;2022-11-11T07:37:47;102872.38;;;9.85;100.00
69751;BME280;57335;52.288;6.056;2022-11-11T07:40:16;102888.16;;;9.93;100.00
69751;BME280;57335;52.288;6.056;2022-11-11T07:42:43;102878.94;;;9.89;100.00
69751;BME280;57335;52.288;6.056;2022-11-11T07:45:10;102892.41;;;9.94;100.00
69751;BME280;57335;52.288;6.056;2022-11-11T07:47:37;102883.06;;;9.91;100.00
69751;BME280;57335;52.288;6.056;2022-11-11T07:50:05;102877.00;;;9.91;100.00
69751;BME280;57335;52.288;6.056;2022-11-11T07:52:34;102895.41;;;9.99;100.00
69751;BME280;57335;52.288;6.056;2022-11-11T07:55:00;102898.38;;;10.04;100.00
69751;BME280;57335;52.288;6.056;2022-11-11T07:57:26;102897.69;;;10.02;100.00
69751;BME280;57335;52.288;6.056;2022-11-11T07:59:53;102906.91;;;10.06;100.00
69751;BME280;57335;52.288;6.056;2022-11-11T08:02:19;102897.69;;;10.02;100.00
69751;BME280;57335;52.288;6.056;2022-11-11T08:04:46;102904.75;;;10.02;100.00
69751;BME280;57335;52.288;6.056;2022-11-11T08:07:19;102901.00;;;10.04;99.74
69751;BME280;57335;52.288;6.056;2022-11-11T08:09:48;102911.56;;;10.12;99.33
69751;BME280;57335;52.288;6.056;2022-11-11T08:12:15;102902.03;;;10.11;99.28
69751;BME280;57335;52.288;6.056;2022-11-11T08:14:47;102907.94;;;10.13;99.26
69751;BME280;57335;52.288;6.056;2022-11-11T08:17:13;102909.91;;;10.11;99.53
69751;BME280;57335;52.288;6.056;2022-11-11T08:19:40;102906.47;;;10.11;99.49
69751;BME280;57335;52.288;6.056;2022-11-11T08:22:06;102916.47;;;10.15;99.09
69751;BME280;57335;52.288;6.056;2022-11-11T08:24:32;102910.88;;;10.10;99.23
69751;BME280;57335;52.288;6.056;2022-11-11T08:27:19;102921.13;;;10.22;99.27
69751;BME280;57335;52.288;6.056;2022-11-11T08:29:45;102914.53;;;10.17;99.27
69751;BME280;57335;52.288;6.056;2022-11-11T08:32:12;102923.44;;;10.25;98.90
69751;BME280;57335;52.288;6.056;2022-11-11T08:34:38;102917.34;;;10.24;99.26
69751;BME280;57335;52.288;6.056;2022-11-11T08:37:05;102915.88;;;10.22;98.60
69751;BME280;57335;52.288;6.056;2022-11-11T08:39:31;102916.69;;;10.22;98.57
69751;BME280;57335;52.288;6.056;2022-11-11T08:41:57;102923.94;;;10.28;98.64
69751;BME280;57335;52.288;6.056;2022-11-11T08:44:24;102927.09;;;10.32;98.33
69751;BME280;57335;52.288;6.056;2022-11-11T08:46:50;102939.47;;;10.40;97.60
69751;BME280;57335;52.288;6.056;2022-11-11T08:49:17;102927.63;;;10.35;97.89
69751;BME280;57335;52.288;6.056;2022-11-11T08:51:43;102936.69;;;10.41;97.94
69751;BME280;57335;52.288;6.056;2022-11-11T08:54:10;102939.47;;;10.40;97.27
69751;BME280;57335;52.288;6.056;2022-11-11T08:56:36;102944.69;;;10.40;97.20
69751;BME280;57335;52.288;6.056;2022-11-11T08:59:03;102948.81;;;10.42;96.67
69751;BME280;57335;52.288;6.056;2022-11-11T09:01:29;102943.88;;;10.39;95.57
69751;BME280;57335;52.288;6.056;2022-11-11T09:03:56;102947.47;;;10.38;95.67
69751;BME280;57335;52.288;6.056;2022-11-11T09:06:36;102952.72;;;10.38;96.02
69751;BME280;57335;52.288;6.056;2022-11-11T09:09:02;102947.41;;;10.30;96.67
69751;BME280;57335;52.288;6.056;2022-11-11T09:11:29;102957.00;;;10.39;96.24
69751;BME280;57335;52.288;6.056;2022-11-11T09:13:55;102956.00;;;10.40;95.94
69751;BME280;57335;52.288;6.056;2022-11-11T09:16:22;102960.94;;;10.43;95.44
69751;BME280;57335;52.288;6.056;2022-11-11T09:18:48;102975.69;;;10.44;94.63
69751;BME280;57335;52.288;6.056;2022-11-11T09:21:15;102976.47;;;10.36;95.64
69751;BME280;57335;52.288;6.056;2022-11-11T09:23:41;102985.00;;;10.38;95.54
69751;BME280;57335;52.288;6.056;2022-11-11T09:26:07;102978.63;;;10.41;95.18
69751;BME280;57335;52.288;6.056;2022-11-11T09:28:34;102972.66;;;10.31;94.92
69751;BME280;57335;52.288;6.056;2022-11-11T09:31:01;102980.53;;;10.31;95.53
69751;BME280;57335;52.288;6.056;2022-11-11T09:33:51;102986.78;;;10.38;95.17
69751;BME280;57335;52.288;6.056;2022-11-11T09:36:18;102982.16;;;10.32;94.24
69751;BME280;57335;52.288;6.056;2022-11-11T09:38:45;102989.41;;;10.38;94.48
69751;BME280;57335;52.288;6.056;2022-11-11T09:41:41;102984.53;;;10.43;94.87
69751;BME280;57335;52.288;6.056;2022-11-11T09:44:39;102986.94;;;10.54;93.69
69751;BME280;57335;52.288;6.056;2022-11-11T09:50:02;102990.66;;;10.52;92.23
69751;BME280;57335;52.288;6.056;2022-11-11T09:52:39;102987.47;;;10.40;94.40
69751;BME280;57335;52.288;6.056;2022-11-11T09:55:22;103001.00;;;10.53;94.04
69751;BME280;57335;52.288;6.056;2022-11-11T09:58:02;102990.06;;;10.58;93.07
69751;BME280;57335;52.288;6.056;2022-11-11T10:00:35;102995.16;;;10.60;92.77
69751;BME280;57335;52.288;6.056;2022-11-11T10:03:13;102998.50;;;10.70;92.96
69751;BME280;57335;52.288;6.056;2022-11-11T10:05:54;102984.41;;;10.71;92.14
69751;BME280;57335;52.288;6.056;2022-11-11T10:08:28;102991.53;;;10.78;91.47
69751;BME280;57335;52.288;6.056;2022-11-11T10:10:58;103001.44;;;10.93;90.63
69751;BME280;57335;52.288;6.056;2022-11-11T10:13:31;102991.63;;;10.95;90.96
69751;BME280;57335;52.288;6.056;2022-11-11T10:16:39;102998.09;;;11.09;90.84
69751;BME280;57335;52.288;6.056;2022-11-11T10:19:15;103002.75;;;11.23;89.88
69751;BME280;57335;52.288;6.056;2022-11-11T10:21:48;102996.53;;;11.32;89.98
69751;BME280;57335;52.288;6.056;2022-11-11T10:24:40;102982.81;;;11.38;87.88
69751;BME280;57335;52.288;6.056;2022-11-11T10:27:19;102998.63;;;11.55;87.12
69751;BME280;57335;52.288;6.056;2022-11-11T10:29:46;103002.56;;;11.59;87.20
69751;BME280;57335;52.288;6.056;2022-11-11T10:32:25;102997.97;;;11.61;86.49
69751;BME280;57335;52.288;6.056;2022-11-11T10:34:53;102982.88;;;11.55;87.47
69751;BME280;57335;52.288;6.056;2022-11-11T10:38:00;103005.25;;;11.75;86.88
69751;BME280;57335;52.288;6.056;2022-11-11T10:40:33;103005.09;;;11.85;86.88
69751;BME280;57335;52.288;6.056;2022-11-11T10:43:02;103007.28;;;11.90;86.87
69751;BME280;57335;52.288;6.056;2022-11-11T10:48:08;103011.88;;;11.96;85.64
69751;BME280;57335;52.288;6.056;2022-11-11T10:50:46;103011.56;;;11.99;84.73
69751;BME280;57335;52.288;6.056;2022-11-11T10:55:47;102998.91;;;12.03;85.29
69751;BME280;57335;52.288;6.056;2022-11-11T10:58:23;103003.34;;;12.18;85.96
69751;BME280;57335;52.288;6.056;2022-11-11T11:00:53;103006.97;;;12.34;87.28
69751;BME280;57335;52.288;6.056;2022-11-11T11:03:26;103011.09;;;12.53;84.72
69751;BME280;57335;52.288;6.056;2022-11-11T11:06:15;103015.03;;;12.73;85.08
69751;BME280;57335;52.288;6.056;2022-11-11T11:08:48;103007.91;;;12.90;85.38
69751;BME280;57335;52.288;6.056;2022-11-11T11:11:23;103010.34;;;13.08;83.70
69751;BME280;57335;52.288;6.056;2022-11-11T11:13:52;102997.34;;;13.15;82.31
69751;BME280;57335;52.288;6.056;2022-11-11T11:16:48;102991.69;;;13.34;79.75
69751;BME280;57335;52.288;6.056;2022-11-11T11:19:18;102993.16;;;13.37;81.48
69751;BME280;57335;52.288;6.056;2022-11-11T11:21:58;102979.63;;;13.40;81.87
69751;BME280;57335;52.288;6.056;2022-11-11T11:24:26;102983.34;;;13.54;82.32
69751;BME280;57335;52.288;6.056;2022-11-11T11:27:04;102987.78;;;13.62;80.45
69751;BME280;57335;52.288;6.056;2022-11-11T11:29:38;102984.28;;;13.69;81.00
69751;BME280;57335;52.288;6.056;2022-11-11T11:32:19;102977.19;;;13.70;79.88
69751;BME280;57335;52.288;6.056;2022-11-11T11:34:50;102982.44;;;13.70;79.35
69751;BME280;57335;52.288;6.056;2022-11-11T11:37:18;102965.50;;;13.64;78.94
69751;BME280;57335;52.288;6.056;2022-11-11T11:39:45;102978.00;;;13.70;79.81
69751;BME280;57335;52.288;6.056;2022-11-11T11:42:32;102987.13;;;13.83;80.45
69751;BME280;57335;52.288;6.056;2022-11-11T11:47:56;102974.19;;;13.96;78.75
69751;BME280;57335;52.288;6.056;2022-11-11T11:50:52;102973.19;;;13.97;78.99
69751;BME280;57335;52.288;6.056;2022-11-11T11:56:28;102968.47;;;14.15;80.26
69751;BME280;57335;52.288;6.056;2022-11-11T11:59:08;102965.38;;;14.27;79.97
69751;BME280;57335;52.288;6.056;2022-11-11T12:04:42;102968.88;;;14.42;78.99
69751;BME280;57335;52.288;6.056;2022-11-11T12:07:37;102977.09;;;14.47;77.72
69751;BME280;57335;52.288;6.056;2022-11-11T12:16:19;102959.06;;;14.51;77.52
69751;BME280;57335;52.288;6.056;2022-11-11T12:19:03;102954.97;;;14.48;78.15
69751;BME280;57335;52.288;6.056;2022-11-11T12:24:37;102965.28;;;14.58;78.66
69751;BME280;57335;52.288;6.056;2022-11-11T12:30:14;102961.34;;;14.54;76.28
69751;BME280;57335;52.288;6.056;2022-11-11T12:36:11;102951.59;;;14.54;78.81
69751;BME280;57335;52.288;6.056;2022-11-11T12:41:24;102944.41;;;14.48;77.93
69751;BME280;57335;52.288;6.056;2022-11-11T12:44:02;102948.72;;;14.49;77.90
69751;BME280;57335;52.288;6.056;2022-11-11T12:49:28;102959.31;;;14.41;77.47
69751;BME280;57335;52.288;6.056;2022-11-11T12:52:22;102957.03;;;14.38;77.18
69751;BME280;57335;52.288;6.056;2022-11-11T12:55:12;102957.75;;;14.32;77.16
69751;BME280;57335;52.288;6.056;2022-11-11T13:11:13;102936.03;;;14.07;79.19
69751;BME280;57335;52.288;6.056;2022-11-11T13:16:32;102946.16;;;14.03;79.39
69751;BME280;57335;52.288;6.056;2022-11-11T13:21:54;102953.66;;;13.91;79.25
69751;BME280;57335;52.288;6.056;2022-11-11T13:24:23;102947.78;;;13.81;78.96
69751;BME280;57335;52.288;6.056;2022-11-11T13:26:57;102964.94;;;13.77;78.72
69751;BME280;57335;52.288;6.056;2022-11-11T13:32:05;102963.19;;;13.69;79.81
69751;BME280;57335;52.288;6.056;2022-11-11T13:34:35;102969.16;;;13.63;79.82
69751;BME280;57335;52.288;6.056;2022-11-11T13:37:03;102965.63;;;13.48;79.45
69751;BME280;57335;52.288;6.056;2022-11-11T13:39:36;102972.38;;;13.42;79.21
69751;BME280;57335;52.288;6.056;2022-11-11T13:42:05;102974.91;;;13.35;80.02
69751;BME280;57335;52.288;6.056;2022-11-11T13:44:48;102981.66;;;13.30;80.24
69751;BME280;57335;52.288;6.056;2022-11-11T13:47:21;102979.38;;;13.18;80.65
69751;BME280;57335;52.288;6.056;2022-11-11T13:49:58;102969.53;;;13.04;80.61
69751;BME280;57335;52.288;6.056;2022-11-11T13:52:30;102979.59;;;13.01;80.46
69751;BME280;57335;52.288;6.056;2022-11-11T13:57:30;102981.09;;;12.87;80.86
69751;BME280;57335;52.288;6.056;2022-11-11T14:00:00;102968.97;;;12.77;81.37
69751;BME280;57335;52.288;6.056;2022-11-11T14:02:31;102978.69;;;12.77;81.66
69751;BME280;57335;52.288;6.056;2022-11-11T14:12:52;102984.63;;;12.46;81.12
69751;BME280;57335;52.288;6.056;2022-11-11T14:15:39;102987.91;;;12.40;81.26